Time;durP1;ratioP1;P1;durP2;ratioP2;P2;SDS_P1;SDS_P2;PMS_P1;PMS_P2;Temp;Humidity;BMP_temperature;BMP_pressure;BME280_temperature;BME280_humidity;BME280_pressure;Samples;Min_cycle;Max_cycle;Signal;HPM_P1;HPM_P2
2022/09/07 00:02:11;;;;;;;9.75;2.92;;;15.40;99.90;;;;;;5099644;28;20047;-65
2022/09/07 00:04:40;;;;;;;;;;;15.40;99.90;;;;;;5092196;28;20072;-66
2022/09/07 00:07:07;;;;;;;9.77;2.67;;;15.40;99.90;;;;;;5092221;28;19931;-65
2022/09/07 00:09:34;;;;;;;8.70;2.38;;;15.40;99.90;;;;;;5098213;28;20410;-65
2022/09/07 00:12:01;;;;;;;7.07;2.72;;;15.40;99.90;;;;;;5098442;28;20052;-70
2022/09/07 00:14:28;;;;;;;12.00;2.90;;;15.40;99.90;;;;;;5093485;28;20048;-67
2022/09/07 00:16:55;;;;;;;11.27;2.80;;;15.40;99.90;;;;;;5103982;28;20044;-67
2022/09/07 00:19:22;;;;;;;10.18;3.15;;;15.30;99.90;;;;;;5100552;28;20040;-67
2022/09/07 00:21:49;;;;;;;4.88;1.65;;;15.30;99.90;;;;;;5091245;28;20052;-67
2022/09/07 00:24:16;;;;;;;8.05;1.90;;;15.30;99.90;;;;;;5092201;28;20044;-67
2022/09/07 00:26:42;;;;;;;7.35;1.85;;;15.20;99.90;;;;;;5091253;28;20048;-67
2022/09/07 00:29:10;;;;;;;9.00;2.35;;;15.20;99.90;;;;;;5073449;28;20043;-68
2022/09/07 00:31:37;;;;;;;9.15;1.98;;;15.20;99.90;;;;;;5099405;28;20044;-67
2022/09/07 00:34:05;;;;;;;9.75;3.05;;;15.20;99.90;;;;;;5104024;28;20039;-67
2022/09/07 00:36:32;;;;;;;8.63;2.95;;;15.20;99.90;;;;;;5091945;28;20048;-65
2022/09/07 00:38:59;;;;;;;10.48;2.50;;;15.20;99.90;;;;;;5090717;28;20039;-67
2022/09/07 00:41:26;;;;;;;13.98;3.47;;;15.20;99.90;;;;;;5124519;27;20488;-67
2022/09/07 00:43:57;;;;;;;5.15;1.85;;;15.20;99.90;;;;;;5086114;28;20075;-67
2022/09/07 00:46:25;;;;;;;9.63;2.22;;;15.20;99.90;;;;;;5094033;28;20487;-68
2022/09/07 00:49:08;;;;;;;9.32;2.25;;;15.20;99.90;;;;;;5096101;28;20036;-67
2022/09/07 00:51:53;;;;;;;7.32;2.13;;;15.20;99.90;;;;;;5096540;28;20073;-66
2022/09/07 00:54:25;;;;;;;8.07;2.35;;;15.20;99.90;;;;;;5082621;28;20048;-67
2022/09/07 00:56:52;;;;;;;8.52;2.47;;;15.20;99.90;;;;;;5099800;28;20055;-66
2022/09/07 00:59:23;;;;;;;7.53;2.42;;;15.20;99.90;;;;;;5091566;28;20495;-67
2022/09/07 01:01:50;;;;;;;11.43;3.17;;;15.20;99.90;;;;;;5101409;28;20044;-66
2022/09/07 01:04:18;;;;;;;7.95;2.50;;;15.20;99.90;;;;;;5104734;28;20067;-66
2022/09/07 01:06:45;;;;;;;6.88;2.47;;;15.20;99.90;;;;;;5086140;28;20529;-66
2022/09/07 01:09:14;;;;;;;10.68;2.55;;;15.20;99.90;;;;;;5106080;28;20474;-67
2022/09/07 01:11:44;;;;;;;8.05;1.70;;;15.20;99.90;;;;;;5091146;28;20505;-67
2022/09/07 01:14:11;;;;;;;6.28;2.28;;;15.20;99.90;;;;;;5094513;28;20051;-67
2022/09/07 01:17:05;;;;;;;6.30;2.00;;;15.10;99.90;;;;;;5090821;28;20048;-66
2022/09/07 01:19:35;;;;;;;8.80;2.42;;;15.10;99.90;;;;;;5090772;28;20051;-66
2022/09/07 01:22:20;;;;;;;10.43;2.40;;;15.00;99.90;;;;;;5106539;28;20054;-67
2022/09/07 01:24:54;;;;;;;8.82;2.40;;;15.00;99.90;;;;;;5091600;28;20047;-67
2022/09/07 01:27:30;;;;;;;7.32;2.47;;;14.90;99.90;;;;;;5092379;28;20036;-66
2022/09/07 01:30:24;;;;;;;6.47;2.00;;;14.90;99.90;;;;;;5099019;28;20480;-66
2022/09/07 01:33:03;;;;;;;7.53;2.65;;;14.90;99.90;;;;;;5092071;28;20047;-66
2022/09/07 01:36:04;;;;;;;11.20;3.17;;;14.90;99.90;;;;;;5091418;28;20047;-66
2022/09/07 01:38:41;;;;;;;7.28;3.15;;;14.80;99.90;;;;;;5106588;28;20059;-66
2022/09/07 01:41:20;;;;;;;4.22;2.03;;;14.80;99.90;;;;;;5099378;28;20052;-67
2022/09/07 01:43:55;;;;;;;5.85;1.98;;;14.80;99.90;;;;;;5093784;28;20044;-66
2022/09/07 01:46:34;;;;;;;8.32;2.30;;;14.70;99.90;;;;;;5110214;28;20056;-65
2022/09/07 01:49:29;;;;;;;6.80;2.17;;;14.80;99.90;;;;;;5087432;28;20047;-67
2022/09/07 01:51:58;;;;;;;7.13;2.30;;;14.70;99.90;;;;;;5031309;28;20044;-66
2022/09/07 01:54:40;;;;;;;10.73;2.20;;;14.70;99.90;;;;;;5091256;28;20422;-66
2022/09/07 01:57:45;;;;;;;5.60;2.53;;;14.70;99.90;;;;;;5057205;28;20040;-66
2022/09/07 02:00:14;;;;;;;7.88;2.30;;;14.60;99.90;;;;;;5053017;28;20399;-66
2022/09/07 02:03:20;;;;;;;6.10;2.47;;;14.60;99.90;;;;;;5073388;28;20044;-66
2022/09/07 02:05:59;;;;;;;6.10;2.08;;;14.60;99.90;;;;;;5063554;28;20058;-65
2022/09/07 02:08:28;;;;;;;6.43;2.33;;;14.60;99.90;;;;;;5103919;28;20044;-66
2022/09/07 02:11:15;;;;;;;9.80;3.22;;;14.50;99.90;;;;;;5084380;28;20130;-66
2022/09/07 02:13:49;;;;;;;5.93;2.53;;;14.50;99.90;;;;;;5104613;28;20040;-65
2022/09/07 02:16:27;;;;;;;3.63;2.17;;;14.50;99.90;;;;;;5084789;28;20080;-65
2022/09/07 02:19:04;;;;;;;10.35;2.65;;;14.50;99.90;;;;;;5076577;28;20044;-65
2022/09/07 02:21:53;;;;;;;8.75;3.22;;;14.60;99.90;;;;;;5096690;28;20040;-65
2022/09/07 02:24:27;;;;;;;9.38;2.67;;;14.60;99.90;;;;;;5094314;28;20059;-65
2022/09/07 02:26:54;;;;;;;11.02;3.40;;;14.70;99.90;;;;;;5083695;28;20329;-67
2022/09/07 02:29:21;;;;;;;9.48;2.40;;;14.80;99.90;;;;;;5087998;28;20131;-65
2022/09/07 02:31:49;;;;;;;10.95;3.80;;;14.90;99.90;;;;;;5074300;28;20052;-65
2022/09/07 02:34:17;;;;;;;9.40;2.58;;;15.00;99.90;;;;;;5076131;28;20040;-65
2022/09/07 02:36:45;;;;;;;5.75;2.45;;;15.00;99.90;;;;;;5095142;28;20488;-65
2022/09/07 02:39:12;;;;;;;9.77;2.87;;;15.00;99.90;;;;;;5077824;28;20062;-66
2022/09/07 02:41:40;;;;;;;12.65;2.78;;;15.00;99.90;;;;;;5096716;28;20398;-65
2022/09/07 02:44:10;;;;;;;11.00;3.95;;;15.00;99.90;;;;;;5111882;28;20493;-65
2022/09/07 02:46:40;;;;;;;9.73;2.55;;;15.00;99.90;;;;;;5077960;28;20058;-65
2022/09/07 02:49:32;;;;;;;12.95;3.78;;;15.00;99.90;;;;;;5104056;28;20484;-65
2022/09/07 02:52:32;;;;;;;9.32;3.58;;;15.00;99.90;;;;;;5104646;28;20043;-65
2022/09/07 02:55:27;;;;;;;16.60;4.28;;;15.10;99.90;;;;;;5100522;28;20044;-65
2022/09/07 02:58:35;;;;;;;8.43;2.83;;;15.10;99.90;;;;;;5095241;28;20484;-65
2022/09/07 03:01:28;;;;;;;11.15;2.58;;;15.10;99.90;;;;;;5075533;28;20051;-65
2022/09/07 03:04:13;;;;;;;13.00;3.15;;;15.10;99.90;;;;;;5096011;28;20048;-65
2022/09/07 03:06:47;;;;;;;10.60;3.80;;;15.10;99.90;;;;;;5093614;28;20535;-64
2022/09/07 03:09:23;;;;;;;10.32;2.97;;;15.10;99.90;;;;;;5078175;28;20061;-65
2022/09/07 03:11:50;;;;;;;9.90;3.28;;;15.10;99.90;;;;;;5091195;28;20056;-65
2022/09/07 03:14:19;;;;;;;11.00;2.95;;;15.10;99.90;;;;;;5086455;28;20072;-65
2022/09/07 03:16:47;;;;;;;9.57;2.80;;;15.20;99.90;;;;;;5075725;28;20059;-65
2022/09/07 03:19:14;;;;;;;11.50;3.28;;;15.20;99.90;;;;;;5093523;28;20044;-65
2022/09/07 03:21:41;;;;;;;14.80;4.13;;;15.20;99.90;;;;;;5100173;28;20054;-65
2022/09/07 03:24:08;;;;;;;14.07;3.47;;;15.20;99.90;;;;;;5108731;28;20061;-64
2022/09/07 03:26:38;;;;;;;7.85;3.38;;;15.30;99.90;;;;;;5095651;28;20403;-65
2022/09/07 03:29:05;;;;;;;19.38;3.90;;;15.30;99.90;;;;;;5077434;28;20138;-65
2022/09/07 03:31:33;;;;;;;12.50;3.25;;;15.30;99.90;;;;;;5110928;28;20383;-66
2022/09/07 03:34:00;;;;;;;15.23;3.40;;;15.40;99.90;;;;;;5078218;28;20046;-65
2022/09/07 03:36:28;;;;;;;14.68;4.65;;;15.50;99.90;;;;;;5094741;28;20466;-65
2022/09/07 03:38:55;;;;;;;13.63;3.50;;;15.50;99.90;;;;;;5107507;28;20040;-65
2022/09/07 03:41:22;;;;;;;15.95;4.47;;;15.50;99.90;;;;;;5065808;28;20055;-66
2022/09/07 03:43:49;;;;;;;14.70;4.25;;;15.60;99.90;;;;;;5112247;28;20044;-65
2022/09/07 03:46:19;;;;;;;10.02;3.10;;;15.60;99.90;;;;;;5104865;28;20502;-65
2022/09/07 03:48:47;;;;;;;13.00;4.20;;;15.70;99.90;;;;;;5111761;28;20048;-65
2022/09/07 03:51:15;;;;;;;11.95;3.45;;;15.70;99.90;;;;;;5095528;28;20052;-65
2022/09/07 03:53:43;;;;;;;14.63;3.35;;;15.70;99.90;;;;;;5086138;28;20541;-65
2022/09/07 03:56:16;;;;;;;12.98;4.95;;;15.80;99.90;;;;;;5075260;28;20212;-68
2022/09/07 03:58:44;;;;;;;17.92;5.47;;;15.90;99.90;;;;;;5091851;28;20040;-65
2022/09/07 04:01:14;;;;;;;20.25;5.35;;;16.00;99.90;;;;;;5083809;28;20388;-66
2022/09/07 04:03:42;;;;;;;16.02;4.28;;;16.00;99.90;;;;;;5090446;28;20466;-65
2022/09/07 04:06:09;;;;;;;19.77;4.35;;;16.00;99.90;;;;;;5097136;28;20051;-65
2022/09/07 04:08:36;;;;;;;15.15;3.58;;;16.10;99.90;;;;;;5075561;28;20052;-65
2022/09/07 04:11:04;;;;;;;17.55;3.90;;;16.10;99.90;;;;;;5075769;28;20063;-65
2022/09/07 04:13:31;;;;;;;18.40;5.60;;;16.10;99.90;;;;;;5092448;28;20059;-66
2022/09/07 04:15:58;;;;;;;14.25;3.70;;;16.20;99.90;;;;;;5080269;28;20542;-65
2022/09/07 04:18:25;;;;;;;15.00;4.60;;;16.20;99.90;;;;;;5088015;28;20052;-65
2022/09/07 04:20:52;;;;;;;18.77;4.47;;;16.20;99.90;;;;;;5104089;28;20126;-65
2022/09/07 04:23:19;;;;;;;17.23;4.75;;;16.20;99.90;;;;;;5058352;28;20055;-65
2022/09/07 04:25:50;;;;;;;21.58;4.07;;;16.20;99.90;;;;;;5093992;28;20488;-66
2022/09/07 04:28:17;;;;;;;16.52;3.95;;;16.20;99.90;;;;;;5093468;28;20052;-64
2022/09/07 04:30:44;;;;;;;9.20;3.22;;;16.20;99.90;;;;;;5111030;28;20040;-65
2022/09/07 04:33:11;;;;;;;17.25;3.83;;;16.30;99.90;;;;;;5103413;28;20462;-65
2022/09/07 04:35:39;;;;;;;17.90;4.35;;;16.30;99.90;;;;;;5106758;28;20051;-65
2022/09/07 04:38:06;;;;;;;11.35;4.28;;;16.30;99.90;;;;;;5095894;28;20123;-65
2022/09/07 04:40:34;;;;;;;9.95;3.15;;;16.20;99.90;;;;;;5098106;28;20495;-65
2022/09/07 04:43:04;;;;;;;11.18;4.05;;;16.20;99.90;;;;;;5092952;28;20048;-65
2022/09/07 04:45:31;;;;;;;12.27;3.03;;;16.20;99.90;;;;;;5077949;28;20166;-66
2022/09/07 04:47:58;;;;;;;7.15;2.65;;;16.10;99.90;;;;;;5091150;28;20391;-65
2022/09/07 04:50:25;;;;;;;9.93;2.70;;;16.10;99.90;;;;;;5103723;28;20046;-66
2022/09/07 04:52:51;;;;;;;6.25;3.15;;;16.00;99.90;;;;;;5109123;28;20044;-65
2022/09/07 04:55:18;;;;;;;8.40;2.97;;;16.00;99.90;;;;;;5085907;28;20048;-65
2022/09/07 04:57:48;;;;;;;5.55;2.50;;;15.90;99.90;;;;;;5106074;28;20047;-64
2022/09/07 05:00:15;;;;;;;8.45;2.72;;;15.90;99.90;;;;;;5075832;28;20078;-65
2022/09/07 05:02:42;;;;;;;10.40;2.80;;;15.80;99.90;;;;;;5092452;28;20040;-65
2022/09/07 05:05:09;;;;;;;7.85;2.72;;;15.80;99.90;;;;;;5097595;28;20066;-64
2022/09/07 05:07:36;;;;;;;7.28;3.30;;;15.70;99.90;;;;;;5092053;28;20039;-65
2022/09/07 05:10:03;;;;;;;11.48;3.45;;;15.70;99.90;;;;;;5092624;28;20066;-65
2022/09/07 05:12:30;;;;;;;10.80;2.72;;;15.60;99.90;;;;;;5092300;28;20082;-65
2022/09/07 05:14:57;;;;;;;11.45;3.35;;;15.60;99.90;;;;;;5099516;28;20044;-65
2022/09/07 05:17:24;;;;;;;13.90;2.72;;;15.50;99.90;;;;;;5110764;28;20040;-65
2022/09/07 05:19:51;;;;;;;12.15;3.40;;;15.50;99.90;;;;;;5097397;28;20044;-67
2022/09/07 05:22:18;;;;;;;17.50;4.63;;;15.50;99.90;;;;;;5064324;28;20048;-66
2022/09/07 05:24:46;;;;;;;14.93;4.20;;;15.50;99.90;;;;;;5097312;28;20040;-66
2022/09/07 05:27:13;;;;;;;13.00;3.92;;;15.50;99.90;;;;;;5100486;28;20053;-67
2022/09/07 05:29:40;;;;;;;13.00;4.15;;;15.40;99.90;;;;;;5091431;28;20066;-65
2022/09/07 05:32:27;;;;;;;10.32;3.47;;;15.40;99.90;;;;;;5078580;28;20051;-66
2022/09/07 05:34:54;;;;;;;13.32;3.58;;;15.40;99.90;;;;;;5103051;28;20051;-66
2022/09/07 05:37:21;;;;;;;11.15;3.30;;;15.40;99.90;;;;;;5088559;28;20044;-65
2022/09/07 05:39:48;;;;;;;19.35;4.05;;;15.30;99.90;;;;;;5099505;28;20047;-65
2022/09/07 05:42:15;;;;;;;22.70;8.88;;;15.40;99.90;;;;;;5100103;28;20108;-67
2022/09/07 05:44:42;;;;;;;173.48;146.43;;;15.30;99.90;;;;;;5103784;28;20128;-66
2022/09/07 05:47:13;;;;;;;44.95;25.13;;;15.40;99.90;;;;;;5086069;28;20161;-66
2022/09/07 05:49:40;;;;;;;22.10;11.75;;;15.30;99.90;;;;;;5093249;28;20051;-68
2022/09/07 05:52:07;;;;;;;19.17;6.78;;;15.30;99.90;;;;;;5090932;28;20479;-67
2022/09/07 05:54:34;;;;;;;24.13;6.57;;;15.30;99.90;;;;;;5087534;28;20066;-65
2022/09/07 05:57:02;;;;;;;17.30;5.20;;;15.40;99.90;;;;;;5105544;28;20036;-68
2022/09/07 05:59:29;;;;;;;16.13;4.40;;;15.40;99.90;;;;;;5091036;28;20052;-67
2022/09/07 06:01:56;;;;;;;13.68;3.65;;;15.30;99.90;;;;;;5086378;28;20040;-66
2022/09/07 06:04:23;;;;;;;17.52;5.10;;;15.30;99.90;;;;;;5098142;28;20047;-66
2022/09/07 06:06:50;;;;;;;153.52;128.35;;;15.40;99.90;;;;;;5104189;28;20043;-66
2022/09/07 06:09:37;;;;;;;29.75;13.77;;;15.40;99.90;;;;;;5093759;28;20105;-65
2022/09/07 06:12:24;;;;;;;18.90;7.03;;;15.40;99.90;;;;;;5093605;28;20121;-66
2022/09/07 06:14:51;;;;;;;16.20;4.78;;;15.50;99.90;;;;;;5113761;28;20518;-66
2022/09/07 06:17:18;;;;;;;16.55;5.25;;;15.50;99.90;;;;;;5111399;28;20044;-73
2022/09/07 06:19:45;;;;;;;22.65;5.00;;;15.50;99.90;;;;;;5098498;28;20063;-73
2022/09/07 06:22:12;;;;;;;11.43;4.50;;;15.60;99.90;;;;;;5079522;28;20055;-72
2022/09/07 06:24:39;;;;;;;14.95;3.65;;;15.60;99.90;;;;;;5102393;28;20044;-72
2022/09/07 06:27:06;;;;;;;11.90;4.45;;;15.60;99.90;;;;;;5093758;28;20376;-72
2022/09/07 06:29:34;;;;;;;10.30;4.13;;;15.70;99.90;;;;;;5106081;28;20449;-72
2022/09/07 06:32:01;;;;;;;15.02;4.82;;;15.70;99.90;;;;;;5090071;28;20044;-72
2022/09/07 06:34:48;;;;;;;21.40;4.68;;;15.80;99.90;;;;;;5087799;28;20105;-73
2022/09/07 06:37:15;;;;;;;14.50;4.80;;;15.80;99.90;;;;;;5095508;28;20073;-76
2022/09/07 06:39:42;;;;;;;16.42;4.72;;;15.80;99.90;;;;;;5092388;28;20051;-72
2022/09/07 06:42:09;;;;;;;12.13;3.60;;;15.90;99.90;;;;;;5097242;28;20467;-69
2022/09/07 06:44:36;;;;;;;15.18;4.22;;;15.90;99.90;;;;;;5076374;28;20052;-66
2022/09/07 06:47:04;;;;;;;14.48;5.30;;;16.00;99.90;;;;;;5094722;28;20043;-74
2022/09/07 06:49:31;;;;;;;15.55;4.15;;;16.00;99.90;;;;;;5101979;28;20040;-73
2022/09/07 06:51:57;;;;;;;13.43;3.97;;;16.10;99.90;;;;;;5095762;28;20039;-77
2022/09/07 06:54:24;;;;;;;16.65;4.88;;;16.10;99.90;;;;;;5093204;28;20048;-65
2022/09/07 06:57:11;;;;;;;19.83;4.25;;;16.20;99.90;;;;;;5097883;28;20357;-66
2022/09/07 06:59:40;;;;;;;14.88;3.63;;;16.20;99.90;;;;;;5077192;28;20055;-66
2022/09/07 07:02:09;;;;;;;;;;;16.30;99.90;;;;;;5099881;28;20440;-65
2022/09/07 07:04:35;;;;;;;18.95;5.45;;;16.30;99.90;;;;;;5098974;28;19926;-66
2022/09/07 07:07:11;;;;;;;17.05;4.28;;;16.40;99.90;;;;;;5096102;28;20851;-65
2022/09/07 07:09:38;;;;;;;15.80;4.35;;;16.50;99.90;;;;;;5104071;28;20200;-66
2022/09/07 07:12:06;;;;;;;17.70;4.03;;;16.50;99.90;;;;;;5108819;28;20051;-68
2022/09/07 07:14:34;;;;;;;16.80;5.50;;;16.50;99.90;;;;;;5093453;28;20044;-66
2022/09/07 07:17:05;;;;;;;26.00;6.07;;;16.60;99.90;;;;;;5096224;28;20380;-67
2022/09/07 07:19:33;;;;;;;13.40;4.18;;;16.70;99.90;;;;;;5104502;27;20047;-69
2022/09/07 07:22:00;;;;;;;17.83;5.07;;;16.80;99.90;;;;;;5102705;28;20097;-67
2022/09/07 07:24:47;;;;;;;18.75;5.18;;;16.90;99.90;;;;;;5098700;28;20044;-66
2022/09/07 07:27:14;;;;;;;18.00;4.68;;;17.00;99.90;;;;;;5104303;28;20578;-66
2022/09/07 07:29:41;;;;;;;15.45;4.10;;;17.10;99.90;;;;;;5099750;28;20051;-66
2022/09/07 07:32:08;;;;;;;16.20;4.47;;;17.20;99.90;;;;;;5099915;28;20040;-66
2022/09/07 07:34:34;;;;;;;15.10;3.92;;;17.30;99.90;;;;;;5099207;28;20051;-66
2022/09/07 07:37:01;;;;;;;14.70;4.95;;;17.40;99.90;;;;;;5097695;28;20130;-65
2022/09/07 07:39:28;;;;;;;14.55;4.88;;;17.40;99.90;;;;;;5096908;28;20494;-66
2022/09/07 07:42:15;;;;;;;44.47;36.25;;;17.50;99.90;;;;;;5077721;28;20143;-68
2022/09/07 07:44:42;;;;;;;19.35;7.07;;;17.60;99.90;;;;;;5098717;28;20123;-66
2022/09/07 07:47:09;;;;;;;17.88;6.57;;;17.70;99.90;;;;;;5098708;28;20056;-66
2022/09/07 07:49:36;;;;;;;12.80;3.60;;;17.80;99.90;;;;;;5092318;28;20055;-65
2022/09/07 07:52:05;;;;;;;27.30;6.90;;;17.90;99.90;;;;;;5075339;28;20561;-66
2022/09/07 07:54:51;;;;;;;15.53;5.17;;;18.00;99.90;;;;;;5090743;28;20601;-69
2022/09/07 07:57:18;;;;;;;16.25;4.55;;;18.00;99.90;;;;;;5091344;28;20079;-68
2022/09/07 07:59:45;;;;;;;19.65;4.35;;;18.00;99.90;;;;;;5091565;28;20117;-67
2022/09/07 08:02:14;;;;;;;18.35;4.78;;;17.90;99.90;;;;;;5095879;28;20077;-70
2022/09/07 08:04:41;;;;;;;15.55;3.92;;;17.90;99.90;;;;;;5078229;28;20143;-70
2022/09/07 08:07:08;;;;;;;11.35;3.33;;;17.90;99.90;;;;;;5072670;28;20093;-66
2022/09/07 08:09:40;;;;;;;14.15;3.70;;;17.90;99.90;;;;;;5077109;28;20467;-66
2022/09/07 08:12:08;;;;;;;16.75;4.75;;;17.90;99.90;;;;;;5091732;28;20135;-66
2022/09/07 08:14:39;;;;;;;14.15;3.72;;;18.00;99.90;;;;;;5081612;28;20040;-66
2022/09/07 08:17:08;;;;;;;20.65;6.13;;;18.00;99.90;;;;;;5093572;28;20471;-67
2022/09/07 08:19:35;;;;;;;13.95;4.13;;;18.20;99.90;;;;;;5105082;28;20120;-66
2022/09/07 08:22:02;;;;;;;14.05;4.38;;;18.30;99.90;;;;;;5079611;28;20089;-67
2022/09/07 08:24:30;;;;;;;18.67;5.35;;;18.30;99.90;;;;;;5105761;28;20048;-65
2022/09/07 08:26:57;;;;;;;18.10;4.95;;;18.40;99.90;;;;;;5089755;28;20068;-64
2022/09/07 08:29:24;;;;;;;17.08;6.97;;;18.50;99.90;;;;;;5093056;28;20105;-65
2022/09/07 08:31:51;;;;;;;16.00;6.82;;;18.70;99.90;;;;;;5103218;28;20052;-67
2022/09/07 08:34:18;;;;;;;9.20;3.67;;;18.70;99.90;;;;;;5102395;28;20097;-73
2022/09/07 08:36:45;;;;;;;11.68;3.50;;;18.80;99.90;;;;;;5097532;28;20071;-73
2022/09/07 08:39:12;;;;;;;11.73;4.40;;;18.90;99.90;;;;;;5076134;28;20052;-69
2022/09/07 08:42:15;;;;;;;12.32;4.05;;;18.90;99.90;;;;;;5094126;28;20453;-66
2022/09/07 08:44:42;;;;;;;13.73;4.07;;;18.90;99.90;;;;;;5082890;28;20118;-66
2022/09/07 08:47:33;;;;;;;16.33;4.55;;;18.90;99.90;;;;;;5091801;28;20040;-66
2022/09/07 08:50:37;;;;;;;18.13;3.97;;;19.10;99.90;;;;;;5091680;28;20044;-66
2022/09/07 08:53:18;;;;;;;15.18;4.22;;;19.20;99.90;;;;;;5092186;28;20043;-66
2022/09/07 08:55:50;;;;;;;16.75;4.05;;;19.40;99.90;;;;;;5074429;28;20488;-66
2022/09/07 08:58:22;;;;;;;15.32;4.57;;;19.40;99.90;;;;;;5091620;28;20052;-66
2022/09/07 09:01:12;;;;;;;16.30;3.85;;;19.50;99.90;;;;;;5085998;28;20090;-67
2022/09/07 09:03:59;;;;;;;15.25;3.70;;;19.60;99.90;;;;;;5091752;28;20500;-66
2022/09/07 09:06:57;;;;;;;12.52;3.17;;;19.80;99.90;;;;;;5090841;28;20048;-66
2022/09/07 09:09:45;;;;;;;19.70;5.97;;;19.90;99.90;;;;;;5098336;28;20075;-66
2022/09/07 09:12:51;;;;;;;12.97;3.87;;;20.00;99.90;;;;;;5110703;28;20059;-66
2022/09/07 09:15:25;;;;;;;17.25;4.70;;;19.90;99.90;;;;;;5112705;28;20296;-66
2022/09/07 09:18:19;;;;;;;13.60;3.95;;;19.90;99.90;;;;;;5094488;28;20059;-67
2022/09/07 09:20:53;;;;;;;18.13;3.58;;;19.90;99.90;;;;;;5110371;28;20113;-67
2022/09/07 09:23:25;;;;;;;13.02;3.28;;;19.80;99.90;;;;;;5094444;28;20079;-66
2022/09/07 09:25:53;;;;;;;13.20;3.38;;;19.80;99.90;;;;;;5104241;28;20047;-66
2022/09/07 09:28:21;;;;;;;13.07;3.72;;;19.90;99.90;;;;;;5116630;28;20056;-66
2022/09/07 09:30:48;;;;;;;13.63;4.38;;;20.00;99.90;;;;;;5082336;28;20128;-68
2022/09/07 09:33:15;;;;;;;14.43;3.72;;;20.00;99.90;;;;;;5112537;28;20040;-66
2022/09/07 09:35:42;;;;;;;15.32;3.10;;;20.10;99.90;;;;;;5105187;28;20105;-66
2022/09/07 09:38:30;;;;;;;15.38;3.75;;;20.10;99.90;;;;;;5098396;28;20081;-66
2022/09/07 09:41:08;;;;;;;11.60;3.42;;;20.10;99.90;;;;;;5113103;28;20053;-66
2022/09/07 09:43:55;;;;;;;13.80;3.67;;;20.20;99.90;;;;;;5098056;28;20047;-66
2022/09/07 09:46:32;;;;;;;14.93;4.63;;;20.30;99.90;;;;;;5114237;28;20460;-66
2022/09/07 09:49:00;;;;;;;10.23;4.00;;;20.40;99.90;;;;;;5099237;28;20039;-66
2022/09/07 09:51:30;;;;;;;13.23;3.83;;;20.40;99.90;;;;;;5071439;28;20550;-68
2022/09/07 09:54:23;;;;;;;10.52;3.28;;;20.40;99.90;;;;;;5080249;28;20859;-67
2022/09/07 09:56:50;;;;;;;13.77;4.20;;;20.40;99.90;;;;;;5095102;28;20406;-67
2022/09/07 09:59:17;;;;;;;12.50;4.03;;;20.40;99.90;;;;;;5083050;28;20105;-66
2022/09/07 10:02:38;;;;;;;18.58;5.45;;;20.40;99.90;;;;;;5113681;28;20043;-66
2022/09/07 10:05:36;;;;;;;10.93;3.67;;;20.40;99.90;;;;;;5054311;28;20139;-66
2022/09/07 10:08:15;;;;;;;13.18;4.05;;;20.40;99.90;;;;;;5076785;28;20093;-66
2022/09/07 10:10:59;;;;;;;12.98;3.72;;;20.30;99.90;;;;;;5077178;28;20109;-67
2022/09/07 10:13:34;;;;;;;9.48;3.47;;;20.10;99.90;;;;;;5074419;28;20048;-66
2022/09/07 10:16:03;;;;;;;13.23;3.30;;;20.00;99.90;;;;;;5093701;28;20051;-66
2022/09/07 10:18:31;;;;;;;;;;;19.80;99.90;;;;;;5093660;28;20044;-66
2022/09/07 10:21:20;;;;;;;15.35;3.70;;;19.70;99.90;;;;;;5093145;28;19920;-66
2022/09/07 10:23:48;;;;;;;11.63;3.22;;;19.60;99.90;;;;;;5080393;28;20098;-67
2022/09/07 10:26:27;;;;;;;11.50;3.80;;;19.60;99.90;;;;;;5060315;28;20048;-66
2022/09/07 10:29:13;;;;;;;;;;;19.70;99.90;;;;;;5093563;28;20549;-66
2022/09/07 10:32:08;;;;;;;10.63;3.13;;;19.70;99.90;;;;;;5094915;28;19920;-67
2022/09/07 10:34:47;;;;;;;13.57;4.93;;;19.80;99.90;;;;;;5095403;28;20047;-66
2022/09/07 10:37:39;;;;;;;14.52;4.55;;;19.80;99.90;;;;;;5093360;28;20105;-66
2022/09/07 10:40:30;;;;;;;12.73;3.63;;;19.90;99.90;;;;;;5078499;28;20081;-66
2022/09/07 10:43:21;;;;;;;13.98;4.10;;;20.00;99.90;;;;;;5076482;28;20048;-66
2022/09/07 10:46:04;;;;;;;13.50;4.82;;;20.00;99.90;;;;;;5113672;28;20048;-67
2022/09/07 10:48:33;;;;;;;13.85;3.45;;;20.10;99.90;;;;;;5112011;28;20116;-66
2022/09/07 10:51:08;;;;;;;12.45;4.60;;;20.10;99.90;;;;;;5112669;28;20486;-64
2022/09/07 10:53:58;;;;;;;13.13;4.53;;;20.30;99.90;;;;;;5091943;28;20047;-66
2022/09/07 10:56:53;;;;;;;19.35;4.47;;;20.40;99.90;;;;;;5104506;28;20044;-67
2022/09/07 10:59:44;;;;;;;11.63;4.80;;;20.60;99.90;;;;;;5090450;28;20052;-70
2022/09/07 11:02:56;;;;;;;14.77;4.07;;;20.80;99.90;;;;;;5105155;28;20079;-72
2022/09/07 11:05:55;;;;;;;16.42;3.88;;;20.90;99.90;;;;;;5100876;28;20047;-69
2022/09/07 11:08:57;;;;;;;7.80;3.10;;;21.00;99.90;;;;;;5102821;28;20044;-73
2022/09/07 11:12:15;;;;;;;14.40;3.83;;;21.00;99.90;;;;;;5085743;28;20591;-74
2022/09/07 11:14:55;;;;;;;16.63;4.32;;;21.10;99.90;;;;;;5073554;28;20051;-79
2022/09/07 11:17:23;;;;;;;13.40;4.10;;;21.20;99.90;;;;;;5087977;28;20440;-75
2022/09/07 11:20:02;;;;;;;9.75;2.83;;;21.30;99.90;;;;;;5075497;28;20048;-73
2022/09/07 11:22:35;;;;;;;12.10;2.90;;;21.30;99.90;;;;;;5097220;28;20411;-71
2022/09/07 11:25:07;;;;;;;8.80;3.30;;;21.30;99.90;;;;;;5093304;28;20070;-72
2022/09/07 11:28:01;;;;;;;8.18;2.90;;;21.30;99.90;;;;;;5093030;28;20063;-71
2022/09/07 11:30:33;;;;;;;12.60;3.90;;;21.40;99.90;;;;;;5102238;28;20044;-71
2022/09/07 11:33:10;;;;;;;9.13;2.83;;;21.60;99.90;;;;;;5085790;28;20055;-76
2022/09/07 11:35:47;;;;;;;14.40;3.45;;;21.70;99.90;;;;;;5074964;28;20051;-77
2022/09/07 11:38:27;;;;;;;14.10;4.38;;;21.90;99.90;;;;;;5077187;28;20116;-69
2022/09/07 11:41:22;;;;;;;13.63;3.75;;;22.00;99.90;;;;;;5097748;28;20109;-68
2022/09/07 11:44:02;;;;;;;10.48;3.90;;;22.00;99.90;;;;;;5092268;28;20101;-69
2022/09/07 11:46:45;;;;;;;11.07;2.92;;;22.00;99.90;;;;;;5092353;28;20044;-69
2022/09/07 11:49:29;;;;;;;10.77;3.00;;;22.00;99.90;;;;;;5070204;28;20049;-70
2022/09/07 11:51:57;;;;;;;11.00;2.80;;;21.80;99.90;;;;;;5098551;28;20044;-70
2022/09/07 11:54:42;;;;;;;14.80;3.10;;;21.80;99.90;;;;;;5091281;28;20436;-77
2022/09/07 11:57:29;;;;;;;;;;;21.90;99.90;;;;;;5093438;28;20513;-76
2022/09/07 12:00:11;;;;;;;8.95;3.42;;;21.90;99.90;;;;;;5109629;28;19920;-76
2022/09/07 12:02:51;;;;;;;10.38;4.07;;;22.00;99.90;;;;;;5096840;28;20484;-76
2022/09/07 12:05:48;;;;;;;10.95;3.60;;;22.10;99.90;;;;;;5092135;28;20135;-76
2022/09/07 12:08:24;;;;;;;9.63;3.05;;;22.10;99.90;;;;;;5083191;28;20143;-76
2022/09/07 12:11:23;;;;;;;9.27;3.05;;;22.10;99.90;;;;;;5082626;28;20039;-75
2022/09/07 12:14:22;;;;;;;10.77;3.47;;;22.20;99.90;;;;;;5113238;28;20056;-75
2022/09/07 12:16:52;;;;;;;8.50;2.60;;;22.20;99.90;;;;;;5064324;28;20047;-76
2022/09/07 12:19:23;;;;;;;14.50;3.15;;;22.40;99.90;;;;;;5109457;28;20441;-76
2022/09/07 12:21:50;;;;;;;8.68;2.85;;;22.40;99.90;;;;;;5096414;28;20127;-75
2022/09/07 12:24:39;;;;;;;10.15;4.03;;;22.40;99.90;;;;;;5102807;28;20060;-74
2022/09/07 12:27:19;;;;;;;8.63;3.10;;;22.60;99.90;;;;;;5094641;28;20052;-74
2022/09/07 12:29:51;;;;;;;10.25;3.67;;;22.60;99.90;;;;;;5092216;28;20097;-71
2022/09/07 12:33:03;;;;;;;8.68;3.17;;;22.60;99.90;;;;;;5076510;28;20444;-76
2022/09/07 12:35:38;;;;;;;9.85;2.78;;;22.60;99.90;;;;;;5086689;28;20116;-77
2022/09/07 12:38:17;;;;;;;11.82;3.20;;;22.60;99.90;;;;;;5094467;28;20040;-73
2022/09/07 12:40:59;;;;;;;11.65;3.22;;;22.60;99.90;;;;;;5106440;28;20096;-70
2022/09/07 12:43:26;;;;;;;8.77;2.38;;;22.70;99.90;;;;;;5094363;28;20052;-73
2022/09/07 12:45:55;;;;;;;11.50;3.10;;;22.80;99.90;;;;;;5110703;28;20073;-75
2022/09/07 12:48:30;;;;;;;;;;;23.00;99.90;;;;;;5090978;28;20396;-75
2022/09/07 12:51:30;;;;;;;8.85;2.97;;;23.00;99.90;;;;;;5094627;28;19920;-74
2022/09/07 12:54:37;;;;;;;10.90;3.65;;;23.10;99.90;;;;;;5091279;28;20123;-75
2022/09/07 12:57:32;;;;;;;9.52;3.05;;;23.30;99.90;;;;;;5084567;28;20052;-76
2022/09/07 13:00:31;;;;;;;10.63;2.63;;;23.30;99.90;;;;;;5074821;28;20075;-74
2022/09/07 13:03:00;;;;;;;10.07;2.60;;;23.30;99.90;;;;;;5092073;28;20055;-70
2022/09/07 13:05:43;;;;;;;12.90;4.20;;;23.10;99.90;;;;;;5090671;28;20080;-73
2022/09/07 13:08:19;;;;;;;13.77;7.57;;;23.10;99.90;;;;;;5100321;28;21994;-74
2022/09/07 13:10:48;;;;;;;7.88;3.75;;;23.20;99.90;;;;;;5100272;28;20044;-72
2022/09/07 13:13:15;;;;;;;10.20;2.88;;;23.30;99.90;;;;;;5081814;28;20052;-74
2022/09/07 13:15:49;;;;;;;7.80;2.42;;;23.40;99.90;;;;;;5099416;28;20052;-74
2022/09/07 13:18:26;;;;;;;9.93;3.28;;;23.40;99.90;;;;;;5097866;28;20479;-74
2022/09/07 13:21:17;;;;;;;8.80;2.55;;;23.30;99.90;;;;;;5097718;28;20052;-74